sensor_id;sensor_type;location;lat;lon;timestamp;temperature;humidity
13488;DHT22;6816;48.506;9.050;2023-04-21T00:02:15;8.40;99.90
13488;DHT22;6816;48.506;9.050;2023-04-21T00:05:16;8.30;99.90
13488;DHT22;6816;48.506;9.050;2023-04-21T00:08:17;8.20;99.90
13488;DHT22;6816;48.506;9.050;2023-04-21T00:11:18;8.20;99.90
13488;DHT22;6816;48.506;9.050;2023-04-21T00:14:19;8.10;99.90
13488;DHT22;6816;48.506;9.050;2023-04-21T00:17:20;8.00;99.90
13488;DHT22;6816;48.506;9.050;2023-04-21T00:20:21;7.90;99.90
13488;DHT22;6816;48.506;9.050;2023-04-21T00:23:22;7.90;99.90
13488;DHT22;6816;48.506;9.050;2023-04-21T00:26:23;7.80;99.90
13488;DHT22;6816;48.506;9.050;2023-04-21T00:29:23;7.70;99.90
13488;DHT22;6816;48.506;9.050;2023-04-21T00:32:24;7.60;99.90
13488;DHT22;6816;48.506;9.050;2023-04-21T00:35:25;7.60;99.90
13488;DHT22;6816;48.506;9.050;2023-04-21T00:38:26;7.50;99.90
13488;DHT22;6816;48.506;9.050;2023-04-21T00:41:27;7.70;99.90
13488;DHT22;6816;48.506;9.050;2023-04-21T00:44:28;7.40;99.90
13488;DHT22;6816;48.506;9.050;2023-04-21T00:47:28;7.30;99.90
13488;DHT22;6816;48.506;9.050;2023-04-21T00:50:31;7.30;99.90
13488;DHT22;6816;48.506;9.050;2023-04-21T00:53:32;7.20;99.90
13488;DHT22;6816;48.506;9.050;2023-04-21T00:56:34;7.30;99.90
13488;DHT22;6816;48.506;9.050;2023-04-21T00:59:36;7.20;99.90
13488;DHT22;6816;48.506;9.050;2023-04-21T01:02:38;7.00;99.90
13488;DHT22;6816;48.506;9.050;2023-04-21T01:05:39;6.90;99.90
13488;DHT22;6816;48.506;9.050;2023-04-21T01:08:41;6.90;99.90
13488;DHT22;6816;48.506;9.050;2023-04-21T01:11:59;6.80;99.90
13488;DHT22;6816;48.506;9.050;2023-04-21T01:15:01;6.70;99.90
13488;DHT22;6816;48.506;9.050;2023-04-21T01:18:02;6.60;99.90
13488;DHT22;6816;48.506;9.050;2023-04-21T01:21:03;6.60;99.90
13488;DHT22;6816;48.506;9.050;2023-04-21T01:24:04;6.50;99.90
13488;DHT22;6816;48.506;9.050;2023-04-21T01:27:13;6.40;99.90
13488;DHT22;6816;48.506;9.050;2023-04-21T01:30:14;6.30;99.90
13488;DHT22;6816;48.506;9.050;2023-04-21T01:33:15;6.30;99.90
13488;DHT22;6816;48.506;9.050;2023-04-21T01:36:15;6.40;99.90
13488;DHT22;6816;48.506;9.050;2023-04-21T01:39:16;6.40;99.90
13488;DHT22;6816;48.506;9.050;2023-04-21T01:42:18;6.30;99.90
13488;DHT22;6816;48.506;9.050;2023-04-21T01:45:18;6.40;99.90
13488;DHT22;6816;48.506;9.050;2023-04-21T01:48:19;6.30;99.90
13488;DHT22;6816;48.506;9.050;2023-04-21T01:51:20;6.30;99.90
13488;DHT22;6816;48.506;9.050;2023-04-21T01:54:20;6.40;99.90
13488;DHT22;6816;48.506;9.050;2023-04-21T01:57:21;6.40;99.90
13488;DHT22;6816;48.506;9.050;2023-04-21T02:00:22;6.40;99.90
13488;DHT22;6816;48.506;9.050;2023-04-21T02:03:22;6.50;99.90
13488;DHT22;6816;48.506;9.050;2023-04-21T02:06:23;6.50;99.90
13488;DHT22;6816;48.506;9.050;2023-04-21T02:09:23;6.60;99.90
13488;DHT22;6816;48.506;9.050;2023-04-21T02:12:24;6.60;99.90
13488;DHT22;6816;48.506;9.050;2023-04-21T02:15:25;6.70;99.90
13488;DHT22;6816;48.506;9.050;2023-04-21T02:18:25;6.60;99.90
13488;DHT22;6816;48.506;9.050;2023-04-21T02:21:28;6.60;99.90
13488;DHT22;6816;48.506;9.050;2023-04-21T02:24:29;6.70;99.90
13488;DHT22;6816;48.506;9.050;2023-04-21T02:27:30;6.80;99.90
13488;DHT22;6816;48.506;9.050;2023-04-21T02:30:30;6.80;99.90
13488;DHT22;6816;48.506;9.050;2023-04-21T02:33:33;6.80;99.90
13488;DHT22;6816;48.506;9.050;2023-04-21T02:36:33;6.90;99.90
13488;DHT22;6816;48.506;9.050;2023-04-21T02:39:34;6.80;99.90
13488;DHT22;6816;48.506;9.050;2023-04-21T02:42:35;6.90;99.90
13488;DHT22;6816;48.506;9.050;2023-04-21T02:45:36;6.90;99.90
13488;DHT22;6816;48.506;9.050;2023-04-21T02:48:36;7.00;99.90
13488;DHT22;6816;48.506;9.050;2023-04-21T02:51:37;6.90;99.90
13488;DHT22;6816;48.506;9.050;2023-04-21T02:54:38;6.90;99.90
13488;DHT22;6816;48.506;9.050;2023-04-21T02:57:38;6.90;99.90
13488;DHT22;6816;48.506;9.050;2023-04-21T03:00:39;7.00;99.90
13488;DHT22;6816;48.506;9.050;2023-04-21T03:03:40;6.90;99.90
13488;DHT22;6816;48.506;9.050;2023-04-21T03:06:40;7.00;99.90
13488;DHT22;6816;48.506;9.050;2023-04-21T03:09:41;6.90;99.90
13488;DHT22;6816;48.506;9.050;2023-04-21T03:12:42;6.90;99.90
13488;DHT22;6816;48.506;9.050;2023-04-21T03:15:42;6.90;99.90
13488;DHT22;6816;48.506;9.050;2023-04-21T03:18:44;6.90;99.90
13488;DHT22;6816;48.506;9.050;2023-04-21T03:21:44;7.00;99.90
13488;DHT22;6816;48.506;9.050;2023-04-21T03:24:45;6.90;99.90
13488;DHT22;6816;48.506;9.050;2023-04-21T03:27:46;7.00;99.90
13488;DHT22;6816;48.506;9.050;2023-04-21T03:30:46;6.90;99.90
13488;DHT22;6816;48.506;9.050;2023-04-21T03:33:47;6.90;99.90
13488;DHT22;6816;48.506;9.050;2023-04-21T03:36:48;6.90;99.90
13488;DHT22;6816;48.506;9.050;2023-04-21T03:39:48;6.80;99.90
13488;DHT22;6816;48.506;9.050;2023-04-21T03:42:49;6.80;99.90
13488;DHT22;6816;48.506;9.050;2023-04-21T03:45:51;6.80;99.90
13488;DHT22;6816;48.506;9.050;2023-04-21T03:48:51;6.80;99.90
13488;DHT22;6816;48.506;9.050;2023-04-21T03:51:52;6.80;99.90
13488;DHT22;6816;48.506;9.050;2023-04-21T03:54:52;6.80;99.90
13488;DHT22;6816;48.506;9.050;2023-04-21T03:57:53;6.80;99.90
13488;DHT22;6816;48.506;9.050;2023-04-21T04:00:54;6.80;99.90
13488;DHT22;6816;48.506;9.050;2023-04-21T04:03:54;6.70;99.90
13488;DHT22;6816;48.506;9.050;2023-04-21T04:06:55;6.70;99.90
13488;DHT22;6816;48.506;9.050;2023-04-21T04:09:56;6.70;99.90
13488;DHT22;6816;48.506;9.050;2023-04-21T04:12:56;6.70;99.90
13488;DHT22;6816;48.506;9.050;2023-04-21T04:15:57;6.80;99.90
13488;DHT22;6816;48.506;9.050;2023-04-21T04:18:58;6.60;99.90
13488;DHT22;6816;48.506;9.050;2023-04-21T04:21:59;6.60;99.90
13488;DHT22;6816;48.506;9.050;2023-04-21T04:25:00;6.60;99.90
13488;DHT22;6816;48.506;9.050;2023-04-21T04:28:01;6.60;99.90
13488;DHT22;6816;48.506;9.050;2023-04-21T04:31:02;6.60;99.90
13488;DHT22;6816;48.506;9.050;2023-04-21T04:34:02;6.70;99.90
13488;DHT22;6816;48.506;9.050;2023-04-21T04:37:04;6.50;99.90
13488;DHT22;6816;48.506;9.050;2023-04-21T04:40:06;6.50;99.90
13488;DHT22;6816;48.506;9.050;2023-04-21T04:43:09;6.50;99.90
13488;DHT22;6816;48.506;9.050;2023-04-21T04:46:10;6.50;99.90
13488;DHT22;6816;48.506;9.050;2023-04-21T04:49:12;6.50;99.90
13488;DHT22;6816;48.506;9.050;2023-04-21T04:52:12;6.50;99.90
13488;DHT22;6816;48.506;9.050;2023-04-21T04:55:13;6.50;99.90
13488;DHT22;6816;48.506;9.050;2023-04-21T04:58:14;6.50;99.90
13488;DHT22;6816;48.506;9.050;2023-04-21T05:01:15;6.50;99.90
13488;DHT22;6816;48.506;9.050;2023-04-21T05:04:16;6.50;99.90
13488;DHT22;6816;48.506;9.050;2023-04-21T05:07:17;6.60;99.90
13488;DHT22;6816;48.506;9.050;2023-04-21T05:10:17;6.50;99.90
13488;DHT22;6816;48.506;9.050;2023-04-21T05:13:18;6.60;99.90
13488;DHT22;6816;48.506;9.050;2023-04-21T05:16:18;6.60;99.90
13488;DHT22;6816;48.506;9.050;2023-04-21T05:19:19;6.60;99.90
13488;DHT22;6816;48.506;9.050;2023-04-21T05:22:20;6.70;99.90
13488;DHT22;6816;48.506;9.050;2023-04-21T05:25:20;6.70;99.90
13488;DHT22;6816;48.506;9.050;2023-04-21T05:28:21;6.70;99.90
13488;DHT22;6816;48.506;9.050;2023-04-21T05:31:23;6.80;99.90
13488;DHT22;6816;48.506;9.050;2023-04-21T05:34:24;6.80;99.90
13488;DHT22;6816;48.506;9.050;2023-04-21T05:37:25;7.00;99.90
13488;DHT22;6816;48.506;9.050;2023-04-21T05:40:26;6.80;99.90
13488;DHT22;6816;48.506;9.050;2023-04-21T05:43:26;6.80;99.90
13488;DHT22;6816;48.506;9.050;2023-04-21T05:46:27;6.80;99.90
13488;DHT22;6816;48.506;9.050;2023-04-21T05:49:29;6.90;99.90
13488;DHT22;6816;48.506;9.050;2023-04-21T05:52:30;6.80;99.90
13488;DHT22;6816;48.506;9.050;2023-04-21T05:55:33;6.80;99.90
13488;DHT22;6816;48.506;9.050;2023-04-21T05:58:34;6.80;99.90
13488;DHT22;6816;48.506;9.050;2023-04-21T06:01:35;6.80;99.90
13488;DHT22;6816;48.506;9.050;2023-04-21T06:04:36;6.80;99.90
13488;DHT22;6816;48.506;9.050;2023-04-21T06:07:36;7.00;99.90
13488;DHT22;6816;48.506;9.050;2023-04-21T06:10:37;6.90;99.90
13488;DHT22;6816;48.506;9.050;2023-04-21T06:13:37;7.00;99.90
13488;DHT22;6816;48.506;9.050;2023-04-21T06:16:38;7.00;99.90
13488;DHT22;6816;48.506;9.050;2023-04-21T06:19:39;7.10;99.90
13488;DHT22;6816;48.506;9.050;2023-04-21T06:22:39;7.00;99.90
13488;DHT22;6816;48.506;9.050;2023-04-21T06:25:40;7.10;99.90
13488;DHT22;6816;48.506;9.050;2023-04-21T06:28:41;7.10;99.90
13488;DHT22;6816;48.506;9.050;2023-04-21T06:31:41;7.10;99.90
13488;DHT22;6816;48.506;9.050;2023-04-21T06:34:42;7.10;99.90
13488;DHT22;6816;48.506;9.050;2023-04-21T06:37:42;7.10;99.90
13488;DHT22;6816;48.506;9.050;2023-04-21T06:40:43;7.20;99.90
13488;DHT22;6816;48.506;9.050;2023-04-21T06:43:44;7.20;99.90
13488;DHT22;6816;48.506;9.050;2023-04-21T06:46:45;7.30;99.90
13488;DHT22;6816;48.506;9.050;2023-04-21T06:49:46;7.40;99.90
13488;DHT22;6816;48.506;9.050;2023-04-21T06:52:47;7.40;99.90
13488;DHT22;6816;48.506;9.050;2023-04-21T06:55:47;7.50;99.90
13488;DHT22;6816;48.506;9.050;2023-04-21T06:58:48;7.50;99.90
13488;DHT22;6816;48.506;9.050;2023-04-21T07:01:48;7.60;99.90
13488;DHT22;6816;48.506;9.050;2023-04-21T07:04:51;7.70;99.90
13488;DHT22;6816;48.506;9.050;2023-04-21T07:07:52;7.80;99.90
13488;DHT22;6816;48.506;9.050;2023-04-21T07:10:55;7.80;99.90
13488;DHT22;6816;48.506;9.050;2023-04-21T07:13:55;7.90;99.90
13488;DHT22;6816;48.506;9.050;2023-04-21T07:16:56;7.90;99.90
13488;DHT22;6816;48.506;9.050;2023-04-21T07:19:57;8.00;99.90
13488;DHT22;6816;48.506;9.050;2023-04-21T07:22:58;8.10;99.90
13488;DHT22;6816;48.506;9.050;2023-04-21T07:25:59;8.20;99.90
13488;DHT22;6816;48.506;9.050;2023-04-21T07:28:59;8.20;99.90
13488;DHT22;6816;48.506;9.050;2023-04-21T07:32:00;8.40;99.90
13488;DHT22;6816;48.506;9.050;2023-04-21T07:35:01;8.50;99.90
13488;DHT22;6816;48.506;9.050;2023-04-21T07:38:02;8.50;99.90
13488;DHT22;6816;48.506;9.050;2023-04-21T07:41:03;8.70;99.90
13488;DHT22;6816;48.506;9.050;2023-04-21T07:44:04;8.80;99.90
13488;DHT22;6816;48.506;9.050;2023-04-21T07:47:05;8.90;99.90
13488;DHT22;6816;48.506;9.050;2023-04-21T07:50:06;9.00;99.90
13488;DHT22;6816;48.506;9.050;2023-04-21T07:53:07;9.20;99.90
13488;DHT22;6816;48.506;9.050;2023-04-21T07:56:07;9.30;99.90
13488;DHT22;6816;48.506;9.050;2023-04-21T07:59:08;9.40;99.90
13488;DHT22;6816;48.506;9.050;2023-04-21T08:02:09;9.60;99.90
13488;DHT22;6816;48.506;9.050;2023-04-21T08:05:09;9.70;99.90
13488;DHT22;6816;48.506;9.050;2023-04-21T08:08:10;9.90;99.90
13488;DHT22;6816;48.506;9.050;2023-04-21T08:11:11;10.00;99.90
13488;DHT22;6816;48.506;9.050;2023-04-21T08:14:12;10.20;99.90
13488;DHT22;6816;48.506;9.050;2023-04-21T08:17:12;10.30;99.90
13488;DHT22;6816;48.506;9.050;2023-04-21T08:20:13;10.40;99.90
13488;DHT22;6816;48.506;9.050;2023-04-21T08:23:14;10.50;99.90
13488;DHT22;6816;48.506;9.050;2023-04-21T08:26:15;10.70;99.90
13488;DHT22;6816;48.506;9.050;2023-04-21T08:29:16;10.90;99.90
13488;DHT22;6816;48.506;9.050;2023-04-21T08:32:16;11.00;99.90
13488;DHT22;6816;48.506;9.050;2023-04-21T08:35:23;11.10;99.90
13488;DHT22;6816;48.506;9.050;2023-04-21T08:38:23;11.10;99.90
13488;DHT22;6816;48.506;9.050;2023-04-21T08:41:25;11.30;99.90
13488;DHT22;6816;48.506;9.050;2023-04-21T08:44:26;11.30;99.90
13488;DHT22;6816;48.506;9.050;2023-04-21T08:47:28;11.40;99.90
13488;DHT22;6816;48.506;9.050;2023-04-21T08:50:30;11.40;99.90
13488;DHT22;6816;48.506;9.050;2023-04-21T08:53:30;11.50;99.90
13488;DHT22;6816;48.506;9.050;2023-04-21T08:56:31;11.70;99.90
13488;DHT22;6816;48.506;9.050;2023-04-21T08:59:32;11.70;99.90
13488;DHT22;6816;48.506;9.050;2023-04-21T09:02:33;11.90;99.90
13488;DHT22;6816;48.506;9.050;2023-04-21T09:05:34;12.00;99.90
13488;DHT22;6816;48.506;9.050;2023-04-21T09:08:38;12.20;99.90
13488;DHT22;6816;48.506;9.050;2023-04-21T09:11:41;12.50;99.90
13488;DHT22;6816;48.506;9.050;2023-04-21T09:14:42;12.80;99.90
13488;DHT22;6816;48.506;9.050;2023-04-21T09:17:44;13.20;99.90
13488;DHT22;6816;48.506;9.050;2023-04-21T09:20:48;13.60;99.90
13488;DHT22;6816;48.506;9.050;2023-04-21T09:23:52;14.00;99.90
13488;DHT22;6816;48.506;9.050;2023-04-21T09:26:54;14.50;99.90
13488;DHT22;6816;48.506;9.050;2023-04-21T09:30:02;15.00;99.90
13488;DHT22;6816;48.506;9.050;2023-04-21T09:33:03;15.50;99.90
13488;DHT22;6816;48.506;9.050;2023-04-21T09:36:04;16.00;99.90
13488;DHT22;6816;48.506;9.050;2023-04-21T09:39:05;16.40;99.90
13488;DHT22;6816;48.506;9.050;2023-04-21T09:42:09;16.80;99.90
13488;DHT22;6816;48.506;9.050;2023-04-21T09:45:10;17.10;99.90
13488;DHT22;6816;48.506;9.050;2023-04-21T09:48:12;17.50;99.90
13488;DHT22;6816;48.506;9.050;2023-04-21T09:51:15;17.80;99.90
13488;DHT22;6816;48.506;9.050;2023-04-21T09:54:19;18.20;99.90
13488;DHT22;6816;48.506;9.050;2023-04-21T09:57:24;18.40;99.90
13488;DHT22;6816;48.506;9.050;2023-04-21T10:00:27;18.70;99.90
13488;DHT22;6816;48.506;9.050;2023-04-21T10:03:29;19.00;99.90
13488;DHT22;6816;48.506;9.050;2023-04-21T10:06:31;19.10;99.90
13488;DHT22;6816;48.506;9.050;2023-04-21T10:09:40;19.40;99.90
13488;DHT22;6816;48.506;9.050;2023-04-21T10:12:43;19.30;99.90
13488;DHT22;6816;48.506;9.050;2023-04-21T10:15:44;19.40;99.90
13488;DHT22;6816;48.506;9.050;2023-04-21T10:18:45;19.40;99.90
13488;DHT22;6816;48.506;9.050;2023-04-21T10:21:49;19.50;99.90
13488;DHT22;6816;48.506;9.050;2023-04-21T10:24:57;19.60;99.90
13488;DHT22;6816;48.506;9.050;2023-04-21T10:27:59;19.60;99.90
13488;DHT22;6816;48.506;9.050;2023-04-21T10:37:24;19.80;99.90
13488;DHT22;6816;48.506;9.050;2023-04-21T10:40:34;19.90;99.90
13488;DHT22;6816;48.506;9.050;2023-04-21T10:43:45;20.10;99.90
13488;DHT22;6816;48.506;9.050;2023-04-21T10:46:47;20.30;99.90
13488;DHT22;6816;48.506;9.050;2023-04-21T10:49:48;20.60;99.90
13488;DHT22;6816;48.506;9.050;2023-04-21T10:53:10;20.90;99.90
13488;DHT22;6816;48.506;9.050;2023-04-21T10:56:11;21.20;99.50
13488;DHT22;6816;48.506;9.050;2023-04-21T10:59:12;21.60;99.90
13488;DHT22;6816;48.506;9.050;2023-04-21T11:02:16;22.00;99.90
13488;DHT22;6816;48.506;9.050;2023-04-21T11:05:16;22.20;99.90
13488;DHT22;6816;48.506;9.050;2023-04-21T11:08:17;22.40;99.90
13488;DHT22;6816;48.506;9.050;2023-04-21T11:11:21;22.50;99.90
13488;DHT22;6816;48.506;9.050;2023-04-21T11:14:23;22.70;99.90
13488;DHT22;6816;48.506;9.050;2023-04-21T11:17:24;23.00;99.90
13488;DHT22;6816;48.506;9.050;2023-04-21T11:20:25;23.10;99.90
13488;DHT22;6816;48.506;9.050;2023-04-21T11:23:25;23.20;99.90
13488;DHT22;6816;48.506;9.050;2023-04-21T11:26:44;23.40;99.40
13488;DHT22;6816;48.506;9.050;2023-04-21T11:29:45;23.50;93.60
13488;DHT22;6816;48.506;9.050;2023-04-21T11:32:53;23.50;97.80
13488;DHT22;6816;48.506;9.050;2023-04-21T11:35:54;23.50;93.70
13488;DHT22;6816;48.506;9.050;2023-04-21T11:38:58;23.50;97.30
13488;DHT22;6816;48.506;9.050;2023-04-21T11:41:59;23.50;97.40
13488;DHT22;6816;48.506;9.050;2023-04-21T11:44:59;23.50;96.90
13488;DHT22;6816;48.506;9.050;2023-04-21T11:48:14;23.40;96.10
13488;DHT22;6816;48.506;9.050;2023-04-21T11:51:18;23.30;90.90
13488;DHT22;6816;48.506;9.050;2023-04-21T11:54:19;23.10;93.90
13488;DHT22;6816;48.506;9.050;2023-04-21T11:57:22;23.00;94.60
13488;DHT22;6816;48.506;9.050;2023-04-21T12:00:23;22.80;94.80
13488;DHT22;6816;48.506;9.050;2023-04-21T12:03:28;22.80;95.70
13488;DHT22;6816;48.506;9.050;2023-04-21T12:06:31;22.80;96.10
13488;DHT22;6816;48.506;9.050;2023-04-21T12:09:35;22.70;95.20
13488;DHT22;6816;48.506;9.050;2023-04-21T12:12:40;22.70;94.10
13488;DHT22;6816;48.506;9.050;2023-04-21T12:15:43;22.60;93.60
13488;DHT22;6816;48.506;9.050;2023-04-21T12:18:47;22.60;94.60
13488;DHT22;6816;48.506;9.050;2023-04-21T12:21:52;22.60;95.30
13488;DHT22;6816;48.506;9.050;2023-04-21T12:24:53;22.60;94.30
13488;DHT22;6816;48.506;9.050;2023-04-21T12:27:58;22.60;96.70
13488;DHT22;6816;48.506;9.050;2023-04-21T12:30:59;22.70;93.70
13488;DHT22;6816;48.506;9.050;2023-04-21T12:33:59;22.70;96.60
13488;DHT22;6816;48.506;9.050;2023-04-21T12:37:00;22.80;97.30
13488;DHT22;6816;48.506;9.050;2023-04-21T12:40:02;23.00;98.10
13488;DHT22;6816;48.506;9.050;2023-04-21T12:43:02;23.20;98.20
13488;DHT22;6816;48.506;9.050;2023-04-21T12:46:03;23.30;97.50
13488;DHT22;6816;48.506;9.050;2023-04-21T12:49:05;23.40;96.20
13488;DHT22;6816;48.506;9.050;2023-04-21T12:52:06;23.50;96.30
13488;DHT22;6816;48.506;9.050;2023-04-21T12:55:07;23.50;96.00
13488;DHT22;6816;48.506;9.050;2023-04-21T12:58:08;23.60;97.40
13488;DHT22;6816;48.506;9.050;2023-04-21T13:01:09;23.80;97.40
13488;DHT22;6816;48.506;9.050;2023-04-21T13:04:13;24.00;96.80
13488;DHT22;6816;48.506;9.050;2023-04-21T13:07:14;24.20;96.40
13488;DHT22;6816;48.506;9.050;2023-04-21T13:10:15;24.30;95.80
13488;DHT22;6816;48.506;9.050;2023-04-21T13:13:16;24.30;95.00
13488;DHT22;6816;48.506;9.050;2023-04-21T13:16:17;24.30;94.50
13488;DHT22;6816;48.506;9.050;2023-04-21T13:19:17;24.30;94.60
13488;DHT22;6816;48.506;9.050;2023-04-21T13:22:18;24.30;94.30
13488;DHT22;6816;48.506;9.050;2023-04-21T13:25:18;24.30;94.50
13488;DHT22;6816;48.506;9.050;2023-04-21T13:28:21;24.40;95.50
13488;DHT22;6816;48.506;9.050;2023-04-21T13:31:22;24.50;95.40
13488;DHT22;6816;48.506;9.050;2023-04-21T13:34:23;24.70;95.30
13488;DHT22;6816;48.506;9.050;2023-04-21T13:37:23;24.80;95.80
13488;DHT22;6816;48.506;9.050;2023-04-21T13:40:24;25.00;95.40
13488;DHT22;6816;48.506;9.050;2023-04-21T13:43:25;25.10;94.10
13488;DHT22;6816;48.506;9.050;2023-04-21T13:46:26;25.20;95.00
13488;DHT22;6816;48.506;9.050;2023-04-21T13:49:26;25.30;94.90
13488;DHT22;6816;48.506;9.050;2023-04-21T13:52:27;25.40;94.20
13488;DHT22;6816;48.506;9.050;2023-04-21T13:55:27;25.40;93.60
13488;DHT22;6816;48.506;9.050;2023-04-21T13:58:28;25.50;93.30
13488;DHT22;6816;48.506;9.050;2023-04-21T14:01:30;25.60;93.70
13488;DHT22;6816;48.506;9.050;2023-04-21T14:04:30;25.70;93.90
13488;DHT22;6816;48.506;9.050;2023-04-21T14:07:31;25.80;93.40
13488;DHT22;6816;48.506;9.050;2023-04-21T14:10:33;25.90;93.20
13488;DHT22;6816;48.506;9.050;2023-04-21T14:13:33;26.00;92.70
13488;DHT22;6816;48.506;9.050;2023-04-21T14:16:34;26.00;92.00
13488;DHT22;6816;48.506;9.050;2023-04-21T14:19:35;26.00;91.20
13488;DHT22;6816;48.506;9.050;2023-04-21T14:22:35;25.90;90.00
13488;DHT22;6816;48.506;9.050;2023-04-21T14:25:36;25.60;88.10
13488;DHT22;6816;48.506;9.050;2023-04-21T14:28:37;25.40;87.30
13488;DHT22;6816;48.506;9.050;2023-04-21T14:31:37;25.00;85.60
13488;DHT22;6816;48.506;9.050;2023-04-21T14:34:38;24.70;86.90
13488;DHT22;6816;48.506;9.050;2023-04-21T14:37:39;24.40;87.10
13488;DHT22;6816;48.506;9.050;2023-04-21T14:40:40;24.20;88.40
13488;DHT22;6816;48.506;9.050;2023-04-21T14:43:40;24.00;88.60
13488;DHT22;6816;48.506;9.050;2023-04-21T14:46:41;23.90;90.50
13488;DHT22;6816;48.506;9.050;2023-04-21T14:49:41;23.90;91.00
13488;DHT22;6816;48.506;9.050;2023-04-21T14:52:42;23.90;90.80
13488;DHT22;6816;48.506;9.050;2023-04-21T14:55:43;23.80;90.20
13488;DHT22;6816;48.506;9.050;2023-04-21T14:58:43;23.70;90.60
13488;DHT22;6816;48.506;9.050;2023-04-21T15:01:44;23.60;90.20
13488;DHT22;6816;48.506;9.050;2023-04-21T15:04:45;23.50;90.40
13488;DHT22;6816;48.506;9.050;2023-04-21T15:07:45;23.40;90.30
13488;DHT22;6816;48.506;9.050;2023-04-21T15:10:46;23.30;90.60
13488;DHT22;6816;48.506;9.050;2023-04-21T15:13:47;23.30;90.90
13488;DHT22;6816;48.506;9.050;2023-04-21T15:16:48;23.20;90.90
13488;DHT22;6816;48.506;9.050;2023-04-21T15:19:48;23.20;91.30
13488;DHT22;6816;48.506;9.050;2023-04-21T15:22:49;23.20;91.50
13488;DHT22;6816;48.506;9.050;2023-04-21T15:25:49;23.20;91.70
13488;DHT22;6816;48.506;9.050;2023-04-21T15:28:50;23.20;91.40
13488;DHT22;6816;48.506;9.050;2023-04-21T15:31:51;23.30;91.40
13488;DHT22;6816;48.506;9.050;2023-04-21T15:34:51;23.20;91.10
13488;DHT22;6816;48.506;9.050;2023-04-21T15:37:52;23.20;91.00
13488;DHT22;6816;48.506;9.050;2023-04-21T15:40:53;23.10;90.80
13488;DHT22;6816;48.506;9.050;2023-04-21T15:43:54;23.00;90.40
13488;DHT22;6816;48.506;9.050;2023-04-21T15:46:54;22.90;90.50
13488;DHT22;6816;48.506;9.050;2023-04-21T15:49:55;22.70;90.40
13488;DHT22;6816;48.506;9.050;2023-04-21T15:52:56;22.60;90.70
13488;DHT22;6816;48.506;9.050;2023-04-21T15:55:56;22.60;90.80
13488;DHT22;6816;48.506;9.050;2023-04-21T15:58:57;22.50;90.60
13488;DHT22;6816;48.506;9.050;2023-04-21T16:01:58;22.40;90.70
13488;DHT22;6816;48.506;9.050;2023-04-21T16:04:58;22.40;91.00
13488;DHT22;6816;48.506;9.050;2023-04-21T16:07:59;22.30;90.90
13488;DHT22;6816;48.506;9.050;2023-04-21T16:11:00;22.20;91.00
13488;DHT22;6816;48.506;9.050;2023-04-21T16:14:00;22.10;90.70
13488;DHT22;6816;48.506;9.050;2023-04-21T16:17:01;22.10;90.80
13488;DHT22;6816;48.506;9.050;2023-04-21T16:20:05;22.00;90.60
13488;DHT22;6816;48.506;9.050;2023-04-21T16:23:06;21.90;88.60
13488;DHT22;6816;48.506;9.050;2023-04-21T16:26:06;21.90;90.70
13488;DHT22;6816;48.506;9.050;2023-04-21T16:29:08;21.80;90.80
13488;DHT22;6816;48.506;9.050;2023-04-21T16:32:08;21.70;91.00
13488;DHT22;6816;48.506;9.050;2023-04-21T16:35:09;21.70;91.40
13488;DHT22;6816;48.506;9.050;2023-04-21T16:38:10;21.60;91.80
13488;DHT22;6816;48.506;9.050;2023-04-21T16:41:11;21.60;91.90
13488;DHT22;6816;48.506;9.050;2023-04-21T16:44:12;21.60;91.70
13488;DHT22;6816;48.506;9.050;2023-04-21T16:47:13;21.60;91.40
13488;DHT22;6816;48.506;9.050;2023-04-21T16:50:14;21.60;91.00
13488;DHT22;6816;48.506;9.050;2023-04-21T16:53:14;21.60;90.40
13488;DHT22;6816;48.506;9.050;2023-04-21T16:56:15;21.50;90.00
13488;DHT22;6816;48.506;9.050;2023-04-21T16:59:16;21.50;89.90
13488;DHT22;6816;48.506;9.050;2023-04-21T17:02:19;21.50;89.20
13488;DHT22;6816;48.506;9.050;2023-04-21T17:05:21;21.40;87.10
13488;DHT22;6816;48.506;9.050;2023-04-21T17:08:22;21.30;86.30
13488;DHT22;6816;48.506;9.050;2023-04-21T17:11:23;21.20;87.30
13488;DHT22;6816;48.506;9.050;2023-04-21T17:14:23;21.10;87.80
13488;DHT22;6816;48.506;9.050;2023-04-21T17:17:24;21.00;88.10
13488;DHT22;6816;48.506;9.050;2023-04-21T17:20:25;21.00;87.90
13488;DHT22;6816;48.506;9.050;2023-04-21T17:23:25;20.90;87.70
13488;DHT22;6816;48.506;9.050;2023-04-21T17:26:26;20.80;88.10
13488;DHT22;6816;48.506;9.050;2023-04-21T17:29:27;20.70;87.50
13488;DHT22;6816;48.506;9.050;2023-04-21T17:32:27;20.60;87.20
13488;DHT22;6816;48.506;9.050;2023-04-21T17:35:28;20.50;87.40
13488;DHT22;6816;48.506;9.050;2023-04-21T17:38:29;20.40;87.30
13488;DHT22;6816;48.506;9.050;2023-04-21T17:41:30;20.30;86.90
13488;DHT22;6816;48.506;9.050;2023-04-21T17:44:30;20.20;86.90
13488;DHT22;6816;48.506;9.050;2023-04-21T17:47:31;20.10;87.40
13488;DHT22;6816;48.506;9.050;2023-04-21T17:50:31;20.00;86.90
13488;DHT22;6816;48.506;9.050;2023-04-21T17:53:32;19.90;86.90
13488;DHT22;6816;48.506;9.050;2023-04-21T17:56:33;19.90;87.10
13488;DHT22;6816;48.506;9.050;2023-04-21T17:59:33;19.80;86.90
13488;DHT22;6816;48.506;9.050;2023-04-21T18:02:34;19.70;87.20
13488;DHT22;6816;48.506;9.050;2023-04-21T18:05:34;19.60;87.60
13488;DHT22;6816;48.506;9.050;2023-04-21T18:08:36;19.50;87.00
13488;DHT22;6816;48.506;9.050;2023-04-21T18:11:37;19.40;86.70
13488;DHT22;6816;48.506;9.050;2023-04-21T18:14:37;19.30;87.10
13488;DHT22;6816;48.506;9.050;2023-04-21T18:17:38;19.20;86.80
13488;DHT22;6816;48.506;9.050;2023-04-21T18:20:39;19.10;87.30
13488;DHT22;6816;48.506;9.050;2023-04-21T18:23:40;19.00;87.10
13488;DHT22;6816;48.506;9.050;2023-04-21T18:26:40;18.90;87.10
13488;DHT22;6816;48.506;9.050;2023-04-21T18:29:41;18.80;87.20
13488;DHT22;6816;48.506;9.050;2023-04-21T18:32:41;18.70;87.90
13488;DHT22;6816;48.506;9.050;2023-04-21T18:35:42;18.60;88.00
13488;DHT22;6816;48.506;9.050;2023-04-21T18:38:43;18.50;88.60
13488;DHT22;6816;48.506;9.050;2023-04-21T18:41:43;18.40;89.00
13488;DHT22;6816;48.506;9.050;2023-04-21T18:44:47;18.30;89.00
13488;DHT22;6816;48.506;9.050;2023-04-21T18:47:48;18.20;88.90
13488;DHT22;6816;48.506;9.050;2023-04-21T18:50:49;18.10;88.90
13488;DHT22;6816;48.506;9.050;2023-04-21T18:53:49;18.00;89.20
13488;DHT22;6816;48.506;9.050;2023-04-21T18:56:50;18.00;89.70
13488;DHT22;6816;48.506;9.050;2023-04-21T18:59:51;17.90;89.50
13488;DHT22;6816;48.506;9.050;2023-04-21T19:02:51;17.80;89.90
13488;DHT22;6816;48.506;9.050;2023-04-21T19:05:52;17.70;89.80
13488;DHT22;6816;48.506;9.050;2023-04-21T19:08:53;17.70;90.00
13488;DHT22;6816;48.506;9.050;2023-04-21T19:11:54;17.60;90.40
13488;DHT22;6816;48.506;9.050;2023-04-21T19:14:54;17.60;90.10
13488;DHT22;6816;48.506;9.050;2023-04-21T19:17:55;17.50;90.20
13488;DHT22;6816;48.506;9.050;2023-04-21T19:20:56;17.40;90.40
13488;DHT22;6816;48.506;9.050;2023-04-21T19:23:56;17.40;90.50
13488;DHT22;6816;48.506;9.050;2023-04-21T19:26:57;17.30;90.60
13488;DHT22;6816;48.506;9.050;2023-04-21T19:29:58;17.20;90.50
13488;DHT22;6816;48.506;9.050;2023-04-21T19:32:59;17.20;90.50
13488;DHT22;6816;48.506;9.050;2023-04-21T19:36:00;17.10;90.70
13488;DHT22;6816;48.506;9.050;2023-04-21T19:39:01;17.00;90.70